sensor_id;sensor_type;location;lat;lon;timestamp;noise_LAeq;noise_LA_min;noise_LA_max;noise_LA01;noise_LA95
36217;Laerm;22259;48.792;8.964;2023-02-10T00:01:31;44.33;42.03;46.61;;
36217;Laerm;22259;48.792;8.964;2023-02-10T00:03:56;44.63;42.43;47.19;;
36217;Laerm;22259;48.792;8.964;2023-02-10T00:06:23;44.68;42.08;48.62;;
36217;Laerm;22259;48.792;8.964;2023-02-10T00:08:49;44.07;40.46;51.00;;
36217;Laerm;22259;48.792;8.964;2023-02-10T00:11:15;44.17;41.20;48.64;;
36217;Laerm;22259;48.792;8.964;2023-02-10T00:13:41;44.61;41.12;48.80;;
36217;Laerm;22259;48.792;8.964;2023-02-10T00:16:07;48.65;41.44;66.90;;
36217;Laerm;22259;48.792;8.964;2023-02-10T00:18:34;46.41;41.36;63.72;;
36217;Laerm;22259;48.792;8.964;2023-02-10T00:21:10;43.62;40.89;46.37;;
36217;Laerm;22259;48.792;8.964;2023-02-10T00:23:35;43.16;39.67;45.72;;
36217;Laerm;22259;48.792;8.964;2023-02-10T00:26:02;43.82;41.42;46.48;;
36217;Laerm;22259;48.792;8.964;2023-02-10T00:28:27;43.75;41.48;45.71;;
36217;Laerm;22259;48.792;8.964;2023-02-10T00:30:52;43.99;41.26;46.60;;
36217;Laerm;22259;48.792;8.964;2023-02-10T00:33:18;44.19;42.04;46.30;;
36217;Laerm;22259;48.792;8.964;2023-02-10T00:35:43;44.42;41.32;48.37;;
36217;Laerm;22259;48.792;8.964;2023-02-10T00:38:09;45.34;42.05;51.48;;
36217;Laerm;22259;48.792;8.964;2023-02-10T00:40:34;63.44;43.29;80.06;;
36217;Laerm;22259;48.792;8.964;2023-02-10T00:42:59;45.46;42.56;57.47;;
36217;Laerm;22259;48.792;8.964;2023-02-10T00:45:25;44.89;41.81;51.38;;
36217;Laerm;22259;48.792;8.964;2023-02-10T00:47:50;45.41;41.99;51.18;;
36217;Laerm;22259;48.792;8.964;2023-02-10T00:50:16;44.51;42.30;48.59;;
36217;Laerm;22259;48.792;8.964;2023-02-10T00:52:41;44.67;41.24;48.79;;
36217;Laerm;22259;48.792;8.964;2023-02-10T00:55:06;45.00;42.17;48.73;;
36217;Laerm;22259;48.792;8.964;2023-02-10T00:57:32;45.42;42.29;51.60;;
36217;Laerm;22259;48.792;8.964;2023-02-10T00:59:57;44.90;42.24;52.42;;
36217;Laerm;22259;48.792;8.964;2023-02-10T01:02:23;44.80;41.89;50.35;;
36217;Laerm;22259;48.792;8.964;2023-02-10T01:04:48;44.47;41.44;53.08;;
36217;Laerm;22259;48.792;8.964;2023-02-10T01:07:13;45.53;42.18;52.90;;
36217;Laerm;22259;48.792;8.964;2023-02-10T01:09:39;45.10;41.99;52.59;;
36217;Laerm;22259;48.792;8.964;2023-02-10T01:12:04;43.59;40.41;46.27;;
36217;Laerm;22259;48.792;8.964;2023-02-10T01:14:30;43.79;39.89;47.26;;
36217;Laerm;22259;48.792;8.964;2023-02-10T01:16:55;44.37;41.98;48.14;;
36217;Laerm;22259;48.792;8.964;2023-02-10T01:19:21;44.07;41.72;46.80;;
36217;Laerm;22259;48.792;8.964;2023-02-10T01:21:46;43.81;41.26;45.37;;
36217;Laerm;22259;48.792;8.964;2023-02-10T01:24:11;44.06;41.70;49.66;;
36217;Laerm;22259;48.792;8.964;2023-02-10T01:26:37;59.77;42.43;77.89;;
36217;Laerm;22259;48.792;8.964;2023-02-10T01:29:02;44.08;41.24;48.21;;
36217;Laerm;22259;48.792;8.964;2023-02-10T01:31:27;44.22;41.84;50.44;;
36217;Laerm;22259;48.792;8.964;2023-02-10T01:33:53;44.72;41.36;53.53;;
36217;Laerm;22259;48.792;8.964;2023-02-10T01:36:20;44.17;41.38;53.89;;
36217;Laerm;22259;48.792;8.964;2023-02-10T01:38:46;44.02;41.38;48.28;;
36217;Laerm;22259;48.792;8.964;2023-02-10T01:41:12;43.60;41.06;45.89;;
36217;Laerm;22259;48.792;8.964;2023-02-10T01:43:55;43.56;41.08;49.78;;
36217;Laerm;22259;48.792;8.964;2023-02-10T01:46:21;42.68;39.34;44.99;;
36217;Laerm;22259;48.792;8.964;2023-02-10T01:48:46;42.74;40.21;44.67;;
36217;Laerm;22259;48.792;8.964;2023-02-10T01:51:12;42.72;39.89;45.86;;
36217;Laerm;22259;48.792;8.964;2023-02-10T01:53:38;42.32;40.00;44.59;;
36217;Laerm;22259;48.792;8.964;2023-02-10T01:56:03;42.98;40.18;45.38;;
36217;Laerm;22259;48.792;8.964;2023-02-10T01:58:29;43.06;40.13;45.21;;
36217;Laerm;22259;48.792;8.964;2023-02-10T02:00:57;42.88;40.13;45.27;;
36217;Laerm;22259;48.792;8.964;2023-02-10T02:03:23;43.49;41.04;45.60;;
36217;Laerm;22259;48.792;8.964;2023-02-10T02:05:48;60.40;41.84;74.74;;
36217;Laerm;22259;48.792;8.964;2023-02-10T02:08:24;44.64;42.33;47.88;;
36217;Laerm;22259;48.792;8.964;2023-02-10T02:16:38;44.27;41.66;50.81;;
36217;Laerm;22259;48.792;8.964;2023-02-10T02:27:53;44.15;41.57;46.71;;
36217;Laerm;22259;48.792;8.964;2023-02-10T02:34:22;43.95;41.30;47.22;;
36217;Laerm;22259;48.792;8.964;2023-02-10T02:36:51;43.59;41.26;49.38;;
36217;Laerm;22259;48.792;8.964;2023-02-10T02:39:16;43.21;40.62;45.37;;
36217;Laerm;22259;48.792;8.964;2023-02-10T02:41:41;43.48;40.97;45.48;;
36217;Laerm;22259;48.792;8.964;2023-02-10T02:44:07;44.00;41.26;46.33;;
36217;Laerm;22259;48.792;8.964;2023-02-10T02:46:56;44.61;41.75;49.41;;
36217;Laerm;22259;48.792;8.964;2023-02-10T02:49:37;44.65;42.14;48.27;;
36217;Laerm;22259;48.792;8.964;2023-02-10T02:52:08;45.08;42.68;49.63;;
36217;Laerm;22259;48.792;8.964;2023-02-10T02:57:22;45.12;42.90;50.52;;
36217;Laerm;22259;48.792;8.964;2023-02-10T03:00:05;51.81;42.64;70.77;;
36217;Laerm;22259;48.792;8.964;2023-02-10T03:02:33;49.49;42.27;66.64;;
36217;Laerm;22259;48.792;8.964;2023-02-10T03:04:59;44.80;42.16;48.89;;
36217;Laerm;22259;48.792;8.964;2023-02-10T03:07:25;44.48;42.21;47.83;;
36217;Laerm;22259;48.792;8.964;2023-02-10T03:09:50;44.69;42.40;47.24;;
36217;Laerm;22259;48.792;8.964;2023-02-10T03:12:16;44.86;42.61;48.18;;
36217;Laerm;22259;48.792;8.964;2023-02-10T03:14:41;44.88;42.68;48.32;;
36217;Laerm;22259;48.792;8.964;2023-02-10T03:17:06;44.66;42.35;47.34;;
36217;Laerm;22259;48.792;8.964;2023-02-10T03:19:32;44.81;42.53;47.17;;
36217;Laerm;22259;48.792;8.964;2023-02-10T03:21:57;45.07;43.10;48.78;;
36217;Laerm;22259;48.792;8.964;2023-02-10T03:24:23;44.60;42.04;48.66;;
36217;Laerm;22259;48.792;8.964;2023-02-10T03:26:48;44.39;41.72;47.12;;
36217;Laerm;22259;48.792;8.964;2023-02-10T03:29:14;45.30;42.06;52.74;;
36217;Laerm;22259;48.792;8.964;2023-02-10T03:31:39;45.01;42.72;49.55;;
36217;Laerm;22259;48.792;8.964;2023-02-10T03:34:06;45.45;42.33;55.75;;
36217;Laerm;22259;48.792;8.964;2023-02-10T03:36:31;44.71;41.98;48.55;;
36217;Laerm;22259;48.792;8.964;2023-02-10T03:38:59;58.09;43.29;73.16;;
36217;Laerm;22259;48.792;8.964;2023-02-10T03:41:24;45.81;43.28;52.78;;
36217;Laerm;22259;48.792;8.964;2023-02-10T03:43:50;45.45;43.36;50.48;;
36217;Laerm;22259;48.792;8.964;2023-02-10T03:46:15;54.73;44.10;70.13;;
36217;Laerm;22259;48.792;8.964;2023-02-10T03:48:40;46.53;43.31;53.84;;
36217;Laerm;22259;48.792;8.964;2023-02-10T03:51:06;56.87;43.99;70.95;;
36217;Laerm;22259;48.792;8.964;2023-02-10T03:53:32;46.53;43.13;51.78;;
36217;Laerm;22259;48.792;8.964;2023-02-10T03:55:58;47.46;43.79;53.10;;
36217;Laerm;22259;48.792;8.964;2023-02-10T03:58:23;48.34;44.03;54.03;;
36217;Laerm;22259;48.792;8.964;2023-02-10T04:00:49;48.77;44.01;62.56;;
36217;Laerm;22259;48.792;8.964;2023-02-10T04:03:15;47.65;44.23;52.96;;
36217;Laerm;22259;48.792;8.964;2023-02-10T04:05:41;48.07;44.35;54.07;;
36217;Laerm;22259;48.792;8.964;2023-02-10T04:08:06;46.98;44.18;51.47;;
36217;Laerm;22259;48.792;8.964;2023-02-10T04:10:31;46.58;43.53;51.02;;
36217;Laerm;22259;48.792;8.964;2023-02-10T04:12:57;58.81;43.97;71.57;;
36217;Laerm;22259;48.792;8.964;2023-02-10T04:15:22;46.98;44.16;53.52;;
36217;Laerm;22259;48.792;8.964;2023-02-10T04:17:48;47.53;43.91;51.47;;
36217;Laerm;22259;48.792;8.964;2023-02-10T04:20:13;54.94;44.03;69.90;;
36217;Laerm;22259;48.792;8.964;2023-02-10T04:22:39;46.78;44.18;50.92;;
36217;Laerm;22259;48.792;8.964;2023-02-10T04:25:04;47.58;44.66;52.90;;
36217;Laerm;22259;48.792;8.964;2023-02-10T04:27:30;46.81;44.04;52.41;;
36217;Laerm;22259;48.792;8.964;2023-02-10T04:29:55;55.86;44.24;72.46;;
36217;Laerm;22259;48.792;8.964;2023-02-10T04:32:21;50.46;44.17;67.02;;
36217;Laerm;22259;48.792;8.964;2023-02-10T04:34:46;47.36;44.52;53.66;;
36217;Laerm;22259;48.792;8.964;2023-02-10T04:37:11;46.96;44.38;51.61;;
36217;Laerm;22259;48.792;8.964;2023-02-10T04:39:37;47.37;44.06;53.26;;
36217;Laerm;22259;48.792;8.964;2023-02-10T04:42:02;48.01;44.76;53.83;;
36217;Laerm;22259;48.792;8.964;2023-02-10T04:44:28;47.73;44.36;57.21;;
36217;Laerm;22259;48.792;8.964;2023-02-10T04:46:53;56.70;44.38;71.10;;
36217;Laerm;22259;48.792;8.964;2023-02-10T04:49:18;47.66;44.61;53.13;;
36217;Laerm;22259;48.792;8.964;2023-02-10T04:51:44;48.13;44.61;54.30;;
36217;Laerm;22259;48.792;8.964;2023-02-10T04:54:09;47.75;44.84;52.20;;
36217;Laerm;22259;48.792;8.964;2023-02-10T04:56:34;47.41;44.58;51.34;;
36217;Laerm;22259;48.792;8.964;2023-02-10T04:59:00;47.59;44.55;53.76;;
36217;Laerm;22259;48.792;8.964;2023-02-10T05:01:25;54.71;44.33;71.21;;
36217;Laerm;22259;48.792;8.964;2023-02-10T05:03:51;52.32;44.08;68.46;;
36217;Laerm;22259;48.792;8.964;2023-02-10T05:06:16;47.11;44.29;51.89;;
36217;Laerm;22259;48.792;8.964;2023-02-10T05:08:41;46.17;43.57;53.75;;
36217;Laerm;22259;48.792;8.964;2023-02-10T05:11:08;46.10;43.76;50.19;;
36217;Laerm;22259;48.792;8.964;2023-02-10T05:13:33;47.30;44.05;55.26;;
36217;Laerm;22259;48.792;8.964;2023-02-10T05:15:58;55.35;44.07;72.06;;
36217;Laerm;22259;48.792;8.964;2023-02-10T05:18:24;51.07;44.39;65.48;;
36217;Laerm;22259;48.792;8.964;2023-02-10T05:20:49;47.61;44.41;55.59;;
36217;Laerm;22259;48.792;8.964;2023-02-10T05:23:15;47.58;44.42;51.20;;
36217;Laerm;22259;48.792;8.964;2023-02-10T05:25:40;47.96;45.19;51.42;;
36217;Laerm;22259;48.792;8.964;2023-02-10T05:28:05;47.70;43.69;51.76;;
36217;Laerm;22259;48.792;8.964;2023-02-10T05:30:32;55.05;45.06;70.57;;
36217;Laerm;22259;48.792;8.964;2023-02-10T05:32:57;51.96;45.35;65.22;;
36217;Laerm;22259;48.792;8.964;2023-02-10T05:35:23;61.17;45.46;71.34;;
36217;Laerm;22259;48.792;8.964;2023-02-10T05:37:48;48.15;45.27;51.88;;
36217;Laerm;22259;48.792;8.964;2023-02-10T05:40:13;47.93;45.14;59.77;;
36217;Laerm;22259;48.792;8.964;2023-02-10T05:42:39;47.34;44.88;51.28;;
36217;Laerm;22259;48.792;8.964;2023-02-10T05:45:04;55.09;45.21;69.19;;
36217;Laerm;22259;48.792;8.964;2023-02-10T05:47:29;52.93;45.07;67.99;;
36217;Laerm;22259;48.792;8.964;2023-02-10T05:49:55;48.16;45.19;53.84;;
36217;Laerm;22259;48.792;8.964;2023-02-10T05:52:20;47.93;45.01;51.66;;
36217;Laerm;22259;48.792;8.964;2023-02-10T05:54:45;47.99;44.96;51.66;;
36217;Laerm;22259;48.792;8.964;2023-02-10T05:57:11;47.81;44.67;51.48;;
36217;Laerm;22259;48.792;8.964;2023-02-10T05:59:36;47.88;45.13;51.43;;
36217;Laerm;22259;48.792;8.964;2023-02-10T06:02:02;54.72;45.22;69.44;;
36217;Laerm;22259;48.792;8.964;2023-02-10T06:04:27;53.23;45.31;72.11;;
36217;Laerm;22259;48.792;8.964;2023-02-10T06:06:53;48.51;44.96;54.96;;
36217;Laerm;22259;48.792;8.964;2023-02-10T06:09:18;47.97;45.37;51.84;;
36217;Laerm;22259;48.792;8.964;2023-02-10T06:11:43;48.73;45.41;53.91;;
36217;Laerm;22259;48.792;8.964;2023-02-10T06:14:09;48.40;45.31;55.69;;
36217;Laerm;22259;48.792;8.964;2023-02-10T06:16:34;57.05;45.07;72.36;;
36217;Laerm;22259;48.792;8.964;2023-02-10T06:19:00;48.62;45.10;67.31;;
36217;Laerm;22259;48.792;8.964;2023-02-10T06:21:25;49.85;44.83;64.71;;
36217;Laerm;22259;48.792;8.964;2023-02-10T06:23:51;47.47;44.49;56.92;;
36217;Laerm;22259;48.792;8.964;2023-02-10T06:26:16;48.18;44.52;62.30;;
36217;Laerm;22259;48.792;8.964;2023-02-10T06:28:42;47.33;44.15;58.76;;
36217;Laerm;22259;48.792;8.964;2023-02-10T06:31:07;54.52;44.28;69.80;;
36217;Laerm;22259;48.792;8.964;2023-02-10T06:33:33;53.21;45.15;65.28;;
36217;Laerm;22259;48.792;8.964;2023-02-10T06:36:00;48.92;45.04;55.18;;
36217;Laerm;22259;48.792;8.964;2023-02-10T06:38:28;51.67;45.56;79.30;;
36217;Laerm;22259;48.792;8.964;2023-02-10T06:40:54;49.70;45.99;55.92;;
36217;Laerm;22259;48.792;8.964;2023-02-10T06:43:19;50.29;45.20;57.51;;
36217;Laerm;22259;48.792;8.964;2023-02-10T06:45:45;55.93;46.95;69.63;;
36217;Laerm;22259;48.792;8.964;2023-02-10T06:48:10;52.17;46.86;74.71;;
36217;Laerm;22259;48.792;8.964;2023-02-10T06:50:35;52.71;46.92;76.58;;
36217;Laerm;22259;48.792;8.964;2023-02-10T06:53:03;52.37;46.93;64.83;;
36217;Laerm;22259;48.792;8.964;2023-02-10T06:55:28;54.39;46.11;66.42;;
36217;Laerm;22259;48.792;8.964;2023-02-10T06:57:57;51.98;47.66;57.11;;
36217;Laerm;22259;48.792;8.964;2023-02-10T07:00:22;51.45;46.91;57.50;;
36217;Laerm;22259;48.792;8.964;2023-02-10T07:02:48;56.37;46.73;68.94;;
36217;Laerm;22259;48.792;8.964;2023-02-10T07:05:13;61.43;46.87;76.67;;
36217;Laerm;22259;48.792;8.964;2023-02-10T07:07:39;50.39;46.81;59.07;;
36217;Laerm;22259;48.792;8.964;2023-02-10T07:10:04;49.96;46.97;55.12;;
36217;Laerm;22259;48.792;8.964;2023-02-10T07:12:30;50.10;46.48;57.04;;
36217;Laerm;22259;48.792;8.964;2023-02-10T07:14:55;49.26;46.06;59.20;;
36217;Laerm;22259;48.792;8.964;2023-02-10T07:17:21;55.55;46.49;69.75;;
36217;Laerm;22259;48.792;8.964;2023-02-10T07:19:46;52.62;45.59;72.42;;
36217;Laerm;22259;48.792;8.964;2023-02-10T07:22:12;49.67;45.89;68.31;;
36217;Laerm;22259;48.792;8.964;2023-02-10T07:24:38;55.42;46.03;73.19;;
36217;Laerm;22259;48.792;8.964;2023-02-10T07:27:03;49.51;45.95;57.27;;
36217;Laerm;22259;48.792;8.964;2023-02-10T07:29:28;50.37;46.22;63.70;;
36217;Laerm;22259;48.792;8.964;2023-02-10T07:31:54;54.87;46.21;69.01;;
36217;Laerm;22259;48.792;8.964;2023-02-10T07:34:19;50.55;46.32;64.46;;
36217;Laerm;22259;48.792;8.964;2023-02-10T07:36:46;49.60;45.62;53.70;;
36217;Laerm;22259;48.792;8.964;2023-02-10T07:39:11;49.69;46.11;63.42;;
36217;Laerm;22259;48.792;8.964;2023-02-10T07:41:37;53.00;45.60;66.79;;
36217;Laerm;22259;48.792;8.964;2023-02-10T07:44:02;48.80;45.89;52.89;;
36217;Laerm;22259;48.792;8.964;2023-02-10T07:46:27;54.60;45.82;69.07;;
36217;Laerm;22259;48.792;8.964;2023-02-10T07:48:53;49.44;46.03;65.55;;
36217;Laerm;22259;48.792;8.964;2023-02-10T07:51:18;60.33;45.52;69.38;;
36217;Laerm;22259;48.792;8.964;2023-02-10T07:53:44;48.42;45.53;64.27;;
36217;Laerm;22259;48.792;8.964;2023-02-10T07:56:09;48.47;45.16;56.49;;
36217;Laerm;22259;48.792;8.964;2023-02-10T07:58:35;51.75;45.05;63.56;;
36217;Laerm;22259;48.792;8.964;2023-02-10T08:01:05;50.39;45.25;71.48;;
36217;Laerm;22259;48.792;8.964;2023-02-10T08:03:30;53.25;45.36;67.15;;
36217;Laerm;22259;48.792;8.964;2023-02-10T08:05:56;53.15;45.01;67.18;;
36217;Laerm;22259;48.792;8.964;2023-02-10T08:08:21;47.02;44.72;53.99;;
36217;Laerm;22259;48.792;8.964;2023-02-10T08:10:47;47.43;44.77;50.59;;
36217;Laerm;22259;48.792;8.964;2023-02-10T08:13:12;47.27;43.53;65.80;;
36217;Laerm;22259;48.792;8.964;2023-02-10T08:15:37;46.70;43.53;54.44;;
36217;Laerm;22259;48.792;8.964;2023-02-10T08:18:03;47.02;43.14;61.13;;
36217;Laerm;22259;48.792;8.964;2023-02-10T08:20:28;54.44;43.51;68.77;;
36217;Laerm;22259;48.792;8.964;2023-02-10T08:22:54;53.54;43.23;68.19;;
36217;Laerm;22259;48.792;8.964;2023-02-10T08:25:20;45.84;43.01;52.97;;
36217;Laerm;22259;48.792;8.964;2023-02-10T08:27:45;45.19;42.93;52.91;;
36217;Laerm;22259;48.792;8.964;2023-02-10T08:30:11;51.26;42.59;73.17;;
36217;Laerm;22259;48.792;8.964;2023-02-10T08:32:36;53.04;42.89;69.50;;
36217;Laerm;22259;48.792;8.964;2023-02-10T08:35:02;45.46;42.96;54.76;;
36217;Laerm;22259;48.792;8.964;2023-02-10T08:37:27;58.34;43.62;72.38;;
36217;Laerm;22259;48.792;8.964;2023-02-10T08:39:53;45.88;43.61;54.60;;
36217;Laerm;22259;48.792;8.964;2023-02-10T08:42:18;52.96;43.13;68.25;;
36217;Laerm;22259;48.792;8.964;2023-02-10T08:44:44;45.27;42.44;62.29;;
36217;Laerm;22259;48.792;8.964;2023-02-10T08:47:09;54.75;42.93;70.04;;
36217;Laerm;22259;48.792;8.964;2023-02-10T08:49:36;44.99;42.26;49.97;;
36217;Laerm;22259;48.792;8.964;2023-02-10T08:52:02;44.96;42.69;54.60;;
36217;Laerm;22259;48.792;8.964;2023-02-10T08:54:27;45.30;42.29;68.09;;
36217;Laerm;22259;48.792;8.964;2023-02-10T08:56:53;45.02;42.35;65.70;;
36217;Laerm;22259;48.792;8.964;2023-02-10T08:59:18;46.92;42.64;52.28;;
36217;Laerm;22259;48.792;8.964;2023-02-10T09:01:44;55.06;42.29;69.88;;
36217;Laerm;22259;48.792;8.964;2023-02-10T09:04:09;45.91;42.61;63.06;;
36217;Laerm;22259;48.792;8.964;2023-02-10T09:06:36;44.21;42.14;51.80;;
36217;Laerm;22259;48.792;8.964;2023-02-10T09:09:06;44.47;42.14;57.16;;
36217;Laerm;22259;48.792;8.964;2023-02-10T09:11:32;46.32;42.26;63.41;;
36217;Laerm;22259;48.792;8.964;2023-02-10T09:13:57;46.98;42.27;66.54;;
36217;Laerm;22259;48.792;8.964;2023-02-10T09:16:23;53.42;41.91;68.92;;
36217;Laerm;22259;48.792;8.964;2023-02-10T09:18:49;45.54;42.89;53.41;;
36217;Laerm;22259;48.792;8.964;2023-02-10T09:21:14;45.75;42.66;65.67;;
36217;Laerm;22259;48.792;8.964;2023-02-10T09:23:40;46.26;43.10;60.99;;
36217;Laerm;22259;48.792;8.964;2023-02-10T09:26:05;46.16;43.97;57.21;;
36217;Laerm;22259;48.792;8.964;2023-02-10T09:28:31;46.36;44.15;50.42;;
36217;Laerm;22259;48.792;8.964;2023-02-10T09:30:56;52.02;44.65;68.41;;
36217;Laerm;22259;48.792;8.964;2023-02-10T09:33:21;53.99;44.06;70.00;;
36217;Laerm;22259;48.792;8.964;2023-02-10T09:35:47;46.28;43.87;58.92;;
36217;Laerm;22259;48.792;8.964;2023-02-10T09:38:13;56.06;44.07;69.74;;
36217;Laerm;22259;48.792;8.964;2023-02-10T09:41:01;45.96;44.11;53.73;;
36217;Laerm;22259;48.792;8.964;2023-02-10T09:44:17;47.89;44.01;58.14;;
36217;Laerm;22259;48.792;8.964;2023-02-10T09:56:28;46.28;43.93;56.77;;
36217;Laerm;22259;48.792;8.964;2023-02-10T09:58:55;46.21;44.21;54.79;;
36217;Laerm;22259;48.792;8.964;2023-02-10T10:01:26;53.56;44.17;71.52;;
36217;Laerm;22259;48.792;8.964;2023-02-10T10:04:04;51.51;43.09;65.20;;
36217;Laerm;22259;48.792;8.964;2023-02-10T10:06:34;44.95;42.79;49.27;;
36217;Laerm;22259;48.792;8.964;2023-02-10T10:09:35;44.85;41.91;55.27;;
36217;Laerm;22259;48.792;8.964;2023-02-10T10:12:02;45.92;43.04;62.36;;
36217;Laerm;22259;48.792;8.964;2023-02-10T10:14:38;45.46;42.71;54.66;;
36217;Laerm;22259;48.792;8.964;2023-02-10T10:21:18;59.20;43.06;72.34;;
36217;Laerm;22259;48.792;8.964;2023-02-10T10:29:43;44.69;42.27;66.01;;
36217;Laerm;22259;48.792;8.964;2023-02-10T10:32:16;54.14;39.40;67.96;;
36217;Laerm;22259;48.792;8.964;2023-02-10T10:34:45;48.85;42.82;66.86;;
36217;Laerm;22259;48.792;8.964;2023-02-10T10:37:15;44.26;42.18;51.94;;
36217;Laerm;22259;48.792;8.964;2023-02-10T10:39:42;45.24;42.21;58.42;;
36217;Laerm;22259;48.792;8.964;2023-02-10T10:46:06;50.41;42.19;68.39;;
36217;Laerm;22259;48.792;8.964;2023-02-10T10:48:35;44.58;42.44;57.37;;
36217;Laerm;22259;48.792;8.964;2023-02-10T10:51:03;44.52;42.26;53.92;;
36217;Laerm;22259;48.792;8.964;2023-02-10T10:53:35;44.57;42.22;52.98;;
36217;Laerm;22259;48.792;8.964;2023-02-10T10:56:01;44.89;42.52;62.72;;
36217;Laerm;22259;48.792;8.964;2023-02-10T10:58:35;44.90;42.53;59.01;;
36217;Laerm;22259;48.792;8.964;2023-02-10T11:01:02;53.90;42.83;69.43;;
36217;Laerm;22259;48.792;8.964;2023-02-10T11:03:27;49.96;42.29;64.61;;
36217;Laerm;22259;48.792;8.964;2023-02-10T11:06:12;44.70;42.50;56.50;;
36217;Laerm;22259;48.792;8.964;2023-02-10T11:08:43;44.60;42.52;56.49;;
36217;Laerm;22259;48.792;8.964;2023-02-10T11:11:11;44.54;42.14;51.26;;
36217;Laerm;22259;48.792;8.964;2023-02-10T11:13:37;44.71;42.58;55.11;;
36217;Laerm;22259;48.792;8.964;2023-02-10T11:16:04;50.93;42.50;69.78;;
36217;Laerm;22259;48.792;8.964;2023-02-10T11:18:30;44.72;42.52;60.69;;
36217;Laerm;22259;48.792;8.964;2023-02-10T11:21:06;44.45;42.68;50.59;;
36217;Laerm;22259;48.792;8.964;2023-02-10T11:23:35;44.44;42.43;48.95;;
36217;Laerm;22259;48.792;8.964;2023-02-10T11:26:22;44.97;40.67;61.86;;
36217;Laerm;22259;48.792;8.964;2023-02-10T11:28:47;44.19;40.69;66.46;;
36217;Laerm;22259;48.792;8.964;2023-02-10T11:31:25;55.29;39.70;70.11;;
36217;Laerm;22259;48.792;8.964;2023-02-10T11:34:00;41.79;38.78;54.38;;
36217;Laerm;22259;48.792;8.964;2023-02-10T11:36:30;42.05;38.21;56.88;;
36217;Laerm;22259;48.792;8.964;2023-02-10T11:39:02;46.62;38.13;77.94;;
36217;Laerm;22259;48.792;8.964;2023-02-10T11:41:29;53.95;38.67;70.78;;
36217;Laerm;22259;48.792;8.964;2023-02-10T11:43:54;46.04;38.85;69.80;;
36217;Laerm;22259;48.792;8.964;2023-02-10T11:46:21;53.54;38.74;70.38;;
36217;Laerm;22259;48.792;8.964;2023-02-10T11:48:51;66.33;39.61;74.78;;
36217;Laerm;22259;48.792;8.964;2023-02-10T11:51:17;71.88;38.71;84.45;;
36217;Laerm;22259;48.792;8.964;2023-02-10T11:53:44;70.92;39.15;77.42;;
36217;Laerm;22259;48.792;8.964;2023-02-10T11:56:13;69.21;40.21;80.09;;
36217;Laerm;22259;48.792;8.964;2023-02-10T11:58:44;62.91;40.41;72.70;;
36217;Laerm;22259;48.792;8.964;2023-02-10T12:01:42;67.45;40.33;75.37;;
36217;Laerm;22259;48.792;8.964;2023-02-10T12:04:14;71.14;40.73;83.66;;
36217;Laerm;22259;48.792;8.964;2023-02-10T12:12:11;68.83;39.84;75.45;;
36217;Laerm;22259;48.792;8.964;2023-02-10T12:14:57;58.17;40.11;83.67;;
36217;Laerm;22259;48.792;8.964;2023-02-10T12:17:44;51.97;39.95;78.06;;
36217;Laerm;22259;48.792;8.964;2023-02-10T12:21:18;45.37;40.13;68.01;;
36217;Laerm;22259;48.792;8.964;2023-02-10T12:33:32;50.63;39.43;68.91;;
36217;Laerm;22259;48.792;8.964;2023-02-10T12:36:21;43.05;40.64;52.06;;
36217;Laerm;22259;48.792;8.964;2023-02-10T12:41:51;53.55;40.08;69.70;;
36217;Laerm;22259;48.792;8.964;2023-02-10T12:44:41;42.72;39.94;55.54;;
36217;Laerm;22259;48.792;8.964;2023-02-10T12:47:15;55.00;40.23;70.83;;
36217;Laerm;22259;48.792;8.964;2023-02-10T12:49:52;47.14;39.61;72.91;;
36217;Laerm;22259;48.792;8.964;2023-02-10T12:52:46;43.43;39.40;67.84;;
36217;Laerm;22259;48.792;8.964;2023-02-10T12:55:16;49.04;39.46;64.02;;
36217;Laerm;22259;48.792;8.964;2023-02-10T12:57:45;51.91;40.11;70.65;;
36217;Laerm;22259;48.792;8.964;2023-02-10T13:00:15;44.65;39.12;71.21;;
36217;Laerm;22259;48.792;8.964;2023-02-10T13:02:46;51.39;39.46;69.51;;
36217;Laerm;22259;48.792;8.964;2023-02-10T13:05:18;54.65;39.81;69.52;;
36217;Laerm;22259;48.792;8.964;2023-02-10T13:07:49;48.56;39.55;72.67;;
36217;Laerm;22259;48.792;8.964;2023-02-10T13:10:17;45.27;38.74;64.05;;
36217;Laerm;22259;48.792;8.964;2023-02-10T13:12:45;44.43;39.35;67.34;;
36217;Laerm;22259;48.792;8.964;2023-02-10T13:15:17;55.73;39.78;71.36;;
36217;Laerm;22259;48.792;8.964;2023-02-10T13:17:45;50.31;38.92;65.89;;
36217;Laerm;22259;48.792;8.964;2023-02-10T13:20:18;58.76;38.92;76.53;;
36217;Laerm;22259;48.792;8.964;2023-02-10T13:25:32;44.84;39.21;65.38;;
36217;Laerm;22259;48.792;8.964;2023-02-10T13:33:39;53.45;38.71;70.67;;
36217;Laerm;22259;48.792;8.964;2023-02-10T13:36:15;60.15;39.75;75.32;;
36217;Laerm;22259;48.792;8.964;2023-02-10T13:38:45;45.63;39.97;68.76;;
36217;Laerm;22259;48.792;8.964;2023-02-10T13:41:45;42.42;39.40;56.37;;
36217;Laerm;22259;48.792;8.964;2023-02-10T13:44:25;43.77;38.98;66.71;;
36217;Laerm;22259;48.792;8.964;2023-02-10T13:46:58;55.13;39.78;72.83;;
36217;Laerm;22259;48.792;8.964;2023-02-10T13:49:24;43.62;39.05;67.20;;
36217;Laerm;22259;48.792;8.964;2023-02-10T13:51:50;43.30;39.31;60.04;;
36217;Laerm;22259;48.792;8.964;2023-02-10T13:54:28;42.86;39.52;67.09;;
36217;Laerm;22259;48.792;8.964;2023-02-10T13:56:56;50.59;39.40;65.46;;
36217;Laerm;22259;48.792;8.964;2023-02-10T13:59:26;43.08;39.46;62.04;;
36217;Laerm;22259;48.792;8.964;2023-02-10T14:04:44;49.49;39.21;65.50;;
36217;Laerm;22259;48.792;8.964;2023-02-10T14:11:35;47.32;39.08;66.44;;
36217;Laerm;22259;48.792;8.964;2023-02-10T14:14:04;42.86;39.21;60.86;;
36217;Laerm;22259;48.792;8.964;2023-02-10T14:16:41;55.89;39.43;71.53;;
36217;Laerm;22259;48.792;8.964;2023-02-10T14:19:21;48.32;39.34;61.70;;
36217;Laerm;22259;48.792;8.964;2023-02-10T14:21:47;42.32;38.81;57.19;;
36217;Laerm;22259;48.792;8.964;2023-02-10T14:24:14;41.95;38.70;55.90;;
36217;Laerm;22259;48.792;8.964;2023-02-10T14:26:41;42.65;38.33;60.02;;
36217;Laerm;22259;48.792;8.964;2023-02-10T14:29:09;62.34;38.81;76.76;;
36217;Laerm;22259;48.792;8.964;2023-02-10T14:31:35;52.12;38.88;67.91;;
36217;Laerm;22259;48.792;8.964;2023-02-10T14:34:05;43.45;39.97;59.58;;
36217;Laerm;22259;48.792;8.964;2023-02-10T14:36:31;54.86;39.89;69.24;;
36217;Laerm;22259;48.792;8.964;2023-02-10T14:38:58;42.16;39.49;52.70;;
36217;Laerm;22259;48.792;8.964;2023-02-10T14:41:23;42.75;40.03;54.37;;
36217;Laerm;22259;48.792;8.964;2023-02-10T14:43:53;49.45;40.11;62.23;;
36217;Laerm;22259;48.792;8.964;2023-02-10T14:46:22;54.42;38.92;69.61;;
36217;Laerm;22259;48.792;8.964;2023-02-10T14:48:49;52.94;39.02;70.19;;
36217;Laerm;22259;48.792;8.964;2023-02-10T14:51:21;44.59;39.18;62.79;;
36217;Laerm;22259;48.792;8.964;2023-02-10T14:53:47;45.58;39.21;64.83;;
36217;Laerm;22259;48.792;8.964;2023-02-10T14:56:21;41.83;38.98;54.80;;
36217;Laerm;22259;48.792;8.964;2023-02-10T14:58:47;57.69;38.78;73.15;;
36217;Laerm;22259;48.792;8.964;2023-02-10T15:05:10;51.90;39.12;68.45;;
36217;Laerm;22259;48.792;8.964;2023-02-10T15:07:36;42.01;38.88;60.23;;
36217;Laerm;22259;48.792;8.964;2023-02-10T15:10:14;42.48;39.34;60.85;;
36217;Laerm;22259;48.792;8.964;2023-02-10T15:12:41;41.74;39.25;48.86;;